Aérodrome :
LOGIN :

S'inscrire | Disclaimer

   EN    FR    IT 

 










Légende :    VFR   VFR Marginal   IFR   IFR Intensif   IFR Très Intensif
Visi : 
Plafond : 
>= 8 km
>= 3000ft
5 à 8 km
1000 à 3000 ft
1500m à 5 km
500 à 1000 ft
800 à 1500m
200 à 500 ft
< 800m
< 200 ft
Symboles :   Orages  Brouillard  Fortes neiges  Fortes précipitations  Vent > 20 kt
SIGMETs :   Divers  Orages  Givrage  Turbulence  Onde Orograph.  Cendres Volcan.






- Altitude de l'aérodrome : 36 ft
- Code IATA : RIX


EVRA - Riga

DERNIER METAR :
  • 281350Z 15009KT 9999 FEW016 11/08 Q1012 R18/190095 NOSIG

METARs EXPIRÉS :
  • 281250Z 16009KT 9999 FEW010 10/08 Q1012 R18/190095 NOSIG
  • 281220Z 17009KT 9999 SCT010 10/08 Q1012 R18/190095 NOSIG
  • 281150Z 17011KT 9999 SCT009 SCT011 10/08 Q1012 R18/290195 NOSIG
  • 281120Z 17011KT 9999 SCT009 SCT011 10/08 Q1013 R18/290195 NOSIG

TAF TAF EVRA
Valide du 28 à 12h jusqu'au 29 à 12h UTC


281101Z 2812/2912 17007KT 9999 SCT008 SCT015
TEMPO 2900/2903 BKN012 OVC020
TEMPO 2903/2909 4000 RA BR BKN005 OVC015



MET'MAP, la Météo Aéronautique d'un coup d'oeil ! - Copyright ORBIFLY Décembre 2007 - Disclaimer

ORBIFLY MET'MAP TEAM :

Programmation & Développement : Alexandra Zaïnal
Sur une idée originale de : Baudouin d'Aumeries
Assistance à la programmation : Marc-Olivier Méhu
Soutien technique & logistique : Manuel Goepfert

Contact : metmap@orbifly.com




SOURCES & CREDITS :

   NOAA